Miltona, MN (56354)

6:05 PM CDT on July 25, 2014 (GMT -0500)
Chandler (KAXN) Elev 1424 ft | 45.87 °N, 95.39 °W | Change Station

Current weather conditions updated 12 minutes ago

Overcast
Overcast
76 °F
Feels Like 76 °F
N
0
Wind Variable Wind from North

Tomorrow is forecast to be Much Warmer than today.

Today
High -- | Low -- °F
--% Chance of Precip.
Yesterday
High -- | Low -- °F
Precip. -- in
5:55 AM 8:59 PM
Waning Crescent, 1% visible
Pressure 29.78 in
Visibility 10.0 miles
Clouds Overcast 3300 ft
Dew Point 67 °F
Humidity 74%
Rainfall 0.16 in
Snow Depth Not available.
UV 1 out of 12
Pollen 1.50 out of 12
Air Quality Not available.
Flu Activity Not available.
METAR KAXN 252253Z AUTO 00000KT 10SM OVC033 24/19 A2979 RMK AO2 SLP083 T02440194

More Conditions Fewer Conditions

Pressure 29.78 in
Visibility 10.0 miles
Clouds Overcast 3300 ft
Dew Point 67 °F
Humidity 74%
Rainfall 0.16 in
Snow Depth Not available.
UV 1 out of 12
Pollen 1.50 out of 12
Air Quality Not available.
Flu Activity Not available.
METAR KAXN 252253Z AUTO 00000KT 10SM OVC033 24/19 A2979 RMK AO2 SLP083 T02440194

More Conditions Fewer Conditions

Nowcast | as of 4:14 PM CDT on July 25, 2014

A line showers and isolated thunderstorms...is located over parts of the central third of Minnesota and west central Wisconsin. The showers are moving to the east at 35 mph and will move towards Balsam Lake and Rice Lake Wisconsin between now and 700 PM. In this area expect 10 to 15 minutes light rain...with a brief heavy shower and a widespread light accumulation of a trace to less than a tenth inch.

×

10-Day Weather Forecast

Almanac

Astronomy

Jul. 25, 2014 Rise Set
Actual Time 5:55 AM CDT 8:59 PM CDT
Civil Twilight 5:19 AM CDT 9:34 PM CDT
Nautical Twilight 4:33 AM CDT 10:20 PM CDT
Astronomical Twilight 3:38 AM CDT 11:15 PM CDT
Moon 4:57 AM CDT 7:53 PM CDT
Length of Visible Light 16h 14m
Length of Day
15h 03m
Tomorrow will be 2m 16s shorter.
Waning Crescent, 1% of the Moon is Illuminated
Today
Waning Crescent
Jul 26
New
Aug 3
First Quarter
Aug 10
Full
Aug 17
Last Quarter

Today's Extremes

State Highs State Lows

Community

WunderPhotos

Upload Photos

1,737,436 photos uploaded!

Nearby

Snow Depth

Station Depth Elevation
No new snow has been reported.

Earthquake Activity

City Distance Mag. Time & Date
No recent earthquake activity has been reported nearby.
Minimum magnitude displayed is 2.5.

Coastal Water Temperatures

Place Temperature
No Stations Reporting

Nearby Weather Stations

Station Location Temp. Heat Index Dew Point Humidity Wind Precip. Elev Updated Type
Gardonville, Brandon, MN 74.3 °F 74 °F 68 °F 82% WNW  at  3.0 mph 0.00 in / hr 1411 ft 6:05 PM CDT Rapid Fire

Show More Stations Show Fewer Stations